Home > Products > Valid Products > TAF

000
FTUS44 KHUN 011126
TAFMSL
TAF
KMSL 011126Z 0112/0212 VRB03KT P6SM VCSH SCT050 BKN120
     FM020000 VRB03KT P6SM SCT090 BKN140
     FM021100 14005KT P6SM VCTS SCT040CB BKN080=



000
FTUS44 KHUN 011126
TAFHSV
TAF
KHSV 011126Z 0112/0212 VRB03KT P6SM SCT090 BKN180
     FM011800 12005KT P6SM VCSH SCT040 BKN090
     FM020000 VRB03KT P6SM SCT070 BKN120
     FM021100 14005KT P6SM VCTS SCT040CB BKN080=



000
FTUS44 KHUN 011126
TAFMSL
TAF
KMSL 011126Z 0112/0212 VRB03KT P6SM VCSH SCT050 BKN120
     FM020000 VRB03KT P6SM SCT090 BKN140
     FM021100 14005KT P6SM VCTS SCT040CB BKN080=



000
FTUS44 KHUN 011126
TAFHSV
TAF
KHSV 011126Z 0112/0212 VRB03KT P6SM SCT090 BKN180
     FM011800 12005KT P6SM VCSH SCT040 BKN090
     FM020000 VRB03KT P6SM SCT070 BKN120
     FM021100 14005KT P6SM VCTS SCT040CB BKN080=



000
FTUS44 KHUN 010520
TAFHSV
TAF
KHSV 010520Z 0106/0206 VRB03KT P6SM SCT120 BKN250
     FM011400 VRB04KT P6SM SCT090 BKN180
     FM011800 12005KT P6SM VCSH SCT040 BKN090
     FM020000 VRB03KT P6SM SCT070 BKN120=



000
FTUS44 KHUN 010520
TAFMSL
TAF
KMSL 010520Z 0106/0206 VRB03KT P6SM SCT070 BKN180
     FM011400 VRB04KT P6SM SCT050 BKN120
     FM020000 VRB03KT P6SM SCT090 BKN140=



000
FTUS44 KHUN 010520
TAFHSV
TAF
KHSV 010520Z 0106/0206 VRB03KT P6SM SCT120 BKN250
     FM011400 VRB04KT P6SM SCT090 BKN180
     FM011800 12005KT P6SM VCSH SCT040 BKN090
     FM020000 VRB03KT P6SM SCT070 BKN120=



000
FTUS44 KHUN 010520
TAFMSL
TAF
KMSL 010520Z 0106/0206 VRB03KT P6SM SCT070 BKN180
     FM011400 VRB04KT P6SM SCT050 BKN120
     FM020000 VRB03KT P6SM SCT090 BKN140=



000
FTUS44 KHUN 312320
TAFHSV
TAF
KHSV 312320Z 0100/0124 VRB03KT P6SM SCT120 BKN250
     FM011400 VRB04KT P6SM SCT070 BKN120
     FM011800 12005KT P6SM VCSH SCT040 BKN070=



000
FTUS44 KHUN 312320
TAFMSL
TAF
KMSL 312320Z 0100/0124 VRB03KT P6SM SCT070 BKN200
     FM011400 VRB04KT P6SM SCT050 BKN120=



000
FTUS44 KHUN 312320
TAFHSV
TAF
KHSV 312320Z 0100/0124 VRB03KT P6SM SCT120 BKN250
     FM011400 VRB04KT P6SM SCT070 BKN120
     FM011800 12005KT P6SM VCSH SCT040 BKN070=



000
FTUS44 KHUN 312320
TAFMSL
TAF
KMSL 312320Z 0100/0124 VRB03KT P6SM SCT070 BKN200
     FM011400 VRB04KT P6SM SCT050 BKN120=



000
FTUS44 KHUN 311739
TAFHSV
TAF
KHSV 311739Z 3118/0118 05005KT P6SM BKN150 OVC250
     FM011400 11004KT P6SM VCSH BKN050=



000
FTUS44 KHUN 311739
TAFMSL
TAF
KMSL 311739Z 3118/0118 VRB04KT P6SM SCT090 BKN150
     FM011400 12004KT P6SM VCSH BKN050=



000
FTUS44 KHUN 311739
TAFHSV
TAF
KHSV 311739Z 3118/0118 05005KT P6SM BKN150 OVC250
     FM011400 11004KT P6SM VCSH BKN050=



000
FTUS44 KHUN 311739
TAFMSL
TAF
KMSL 311739Z 3118/0118 VRB04KT P6SM SCT090 BKN150
     FM011400 12004KT P6SM VCSH BKN050=



000
FTUS44 KHUN 311120
TAFHSV
TAF
KHSV 311120Z 3112/0112 VRB04KT P6SM OVC120
     FM311500 11005KT P6SM SCT100 BKN150
     FM011100 00000KT P6SM VCSH OVC050=



000
FTUS44 KHUN 311120
TAFMSL
TAF
KMSL 311120Z 3112/0112 VRB03KT P6SM OVC120
     FM311500 11004KT P6SM SCT100 OVC150
     FM011100 00000KT P6SM VCSH OVC050=



000
FTUS44 KHUN 310520
TAFHSV
TAF
KHSV 310520Z 3106/0106 VRB04KT P6SM BKN250
     FM311500 VRB05KT P6SM SCT120 BKN200=



000
FTUS44 KHUN 310520
TAFMSL
TAF
KMSL 310520Z 3106/0106 VRB03KT P6SM BKN200
     FM311500 VRB04KT P6SM SCT100 OVC180=



000
FTUS44 KHUN 310520
TAFMSL
TAF
KMSL 310520Z 3106/0106 VRB03KT P6SM BKN200
     FM311500 VRB04KT P6SM SCT100 OVC180=



000
FTUS44 KHUN 310520
TAFHSV
TAF
KHSV 310520Z 3106/0106 VRB04KT P6SM BKN250
     FM311500 VRB05KT P6SM SCT120 BKN200=



000
FTUS44 KHUN 302323
TAFMSL
TAF
KMSL 302323Z 3100/3124 VRB03KT P6SM BKN250
     FM311500 VRB05KT P6SM OVC180=



000
FTUS44 KHUN 302323
TAFHSV
TAF
KHSV 302323Z 3100/3124 VRB04KT P6SM SCT250
     FM311500 VRB05KT P6SM BKN200=



000
FTUS44 KHUN 302323
TAFHSV
TAF
KHSV 302323Z 3100/3124 VRB04KT P6SM SCT250
     FM311500 VRB05KT P6SM BKN200=



000
FTUS44 KHUN 302323
TAFMSL
TAF
KMSL 302323Z 3100/3124 VRB03KT P6SM BKN250
     FM311500 VRB05KT P6SM OVC180=



000
FTUS44 KHUN 301725
TAFMSL
TAF
KMSL 301725Z 3018/3118 02006KT P6SM SCT050
     FM310100 03002KT P6SM BKN200
     FM311500 07005KT P6SM OVC150=



000
FTUS44 KHUN 301725
TAFHSV
TAF
KHSV 301725Z 3018/3118 03007KT P6SM SCT050
     FM310200 04002KT P6SM BKN200
     FM311500 09005KT P6SM OVC150=



000
FTUS44 KHUN 301725
TAFHSV
TAF
KHSV 301725Z 3018/3118 03007KT P6SM SCT050
     FM310200 04002KT P6SM BKN200
     FM311500 09005KT P6SM OVC150=



000
FTUS44 KHUN 301725
TAFMSL
TAF
KMSL 301725Z 3018/3118 02006KT P6SM SCT050
     FM310100 03002KT P6SM BKN200
     FM311500 07005KT P6SM OVC150=



000
FTUS44 KHUN 301120
TAFHSV
TAF
KHSV 301120Z 3012/3112 04005KT P6SM SCT250
     FM301800 36005KT P6SM SCT050
     FM310100 00000KT P6SM BKN250=



000
FTUS44 KHUN 301120
TAFMSL
TAF
KMSL 301120Z 3012/3112 04005KT P6SM SCT250
     FM301800 36005KT P6SM SCT050
     FM310000 00000KT P6SM BKN250=



000
FTUS44 KHUN 301120
TAFMSL
TAF
KMSL 301120Z 3012/3112 04005KT P6SM SCT250
     FM301800 36005KT P6SM SCT050
     FM310000 00000KT P6SM BKN250=



000
FTUS44 KHUN 301120
TAFHSV
TAF
KHSV 301120Z 3012/3112 04005KT P6SM SCT250
     FM301800 36005KT P6SM SCT050
     FM310100 00000KT P6SM BKN250=



000
FTUS44 KHUN 300523
TAFMSL
TAF
KMSL 300523Z 3006/3106 VRB02KT P6SM SKC
     FM301500 02005KT P6SM SCT070
     FM310000 VRB03KT P6SM SCT250=



000
FTUS44 KHUN 300523
TAFHSV
TAF
KHSV 300523Z 3006/3106 VRB03KT P6SM SKC
     FM301500 01007KT P6SM SCT090
     FM310000 VRB04KT P6SM SCT250=



000
FTUS44 KHUN 300523
TAFHSV
TAF
KHSV 300523Z 3006/3106 VRB03KT P6SM SKC
     FM301500 01007KT P6SM SCT090
     FM310000 VRB04KT P6SM SCT250=



000
FTUS44 KHUN 300523
TAFMSL
TAF
KMSL 300523Z 3006/3106 VRB02KT P6SM SKC
     FM301500 02005KT P6SM SCT070
     FM310000 VRB03KT P6SM SCT250=



000
FTUS44 KHUN 292320
TAFHSV
TAF
KHSV 292320Z 3000/3024 34007KT P6SM SCT070
     FM300000 VRB04KT P6SM SKC
     FM301500 36007KT P6SM SCT090=



000
FTUS44 KHUN 292320
TAFMSL
TAF
KMSL 292320Z 3000/3024 34005KT P6SM SCT070
     FM300000 VRB03KT P6SM SKC
     FM301500 36005KT P6SM SCT090=



000
FTUS44 KHUN 292320
TAFMSL
TAF
KMSL 292320Z 3000/3024 34005KT P6SM SCT070
     FM300000 VRB03KT P6SM SKC
     FM301500 36005KT P6SM SCT090=



000
FTUS44 KHUN 292320
TAFHSV
TAF
KHSV 292320Z 3000/3024 34007KT P6SM SCT070
     FM300000 VRB04KT P6SM SKC
     FM301500 36007KT P6SM SCT090=



000
FTUS44 KHUN 291720
TAFHSV
TAF
KHSV 291720Z 2918/3018 35010KT P6SM SCT040
     FM300000 01004KT P6SM SKC=



000
FTUS44 KHUN 291720
TAFMSL
TAF
KMSL 291720Z 2918/3018 36008KT P6SM SCT045
     FM300000 VRB03KT P6SM SKC=



000
FTUS44 KHUN 291720
TAFMSL
TAF
KMSL 291720Z 2918/3018 36008KT P6SM SCT045
     FM300000 VRB03KT P6SM SKC=



000
FTUS44 KHUN 291720
TAFHSV
TAF
KHSV 291720Z 2918/3018 35010KT P6SM SCT040
     FM300000 01004KT P6SM SKC=



    US Dept of Commerce
    National Oceanic and Atmospheric Administration
    National Weather Service
    1325 East West Highway
    Silver Spring, MD 20910
    Page Author: NWS Internet Services Team
Disclaimer
Information Quality
Credits
Glossary
Privacy Policy
Freedom of Information Act (FOIA)
About Us
Career Opportunities